createdAt,value
2018-06-19T00:00:28.896Z,17.76
2018-06-19T00:01:28.882Z,17.80
2018-06-19T00:02:28.868Z,17.78
2018-06-19T00:03:28.860Z,17.75
2018-06-19T00:04:28.838Z,17.78
2018-06-19T00:05:28.822Z,17.73
2018-06-19T00:06:28.808Z,17.75
2018-06-19T00:07:28.796Z,17.78
2018-06-19T00:08:28.796Z,17.82
2018-06-19T00:09:28.765Z,17.73
2018-06-19T00:10:28.756Z,17.73
2018-06-19T00:11:28.740Z,17.78
2018-06-19T00:12:28.721Z,17.76
2018-06-19T00:13:28.706Z,17.75
2018-06-19T00:14:28.692Z,17.75
2018-06-19T00:15:28.676Z,17.60
2018-06-19T00:16:28.679Z,17.66
2018-06-19T00:17:28.655Z,17.63
2018-06-19T00:18:28.634Z,17.69
2018-06-19T00:19:28.618Z,17.60
2018-06-19T00:20:28.604Z,17.63
2018-06-19T00:21:28.590Z,17.60
2018-06-19T00:22:28.578Z,17.59
2018-06-19T00:23:28.557Z,17.60
2018-06-19T00:24:28.555Z,17.65
2018-06-19T00:25:28.529Z,17.69
2018-06-19T00:26:28.527Z,17.56
2018-06-19T00:27:28.508Z,17.53
2018-06-19T00:28:28.492Z,17.53
2018-06-19T00:29:28.469Z,17.49
2018-06-19T00:30:28.464Z,17.46
2018-06-19T00:31:28.446Z,17.49
2018-06-19T00:32:28.426Z,17.44
2018-06-19T00:33:28.410Z,17.42
2018-06-19T00:34:28.405Z,17.44
2018-06-19T00:35:28.381Z,17.46
2018-06-19T00:36:28.367Z,17.41
2018-06-19T00:37:28.351Z,17.41
2018-06-19T00:38:28.344Z,17.37
2018-06-19T00:39:28.328Z,17.24
2018-06-19T00:40:28.308Z,17.31
2018-06-19T00:41:28.292Z,17.34
2018-06-19T00:42:28.276Z,17.31
2018-06-19T00:43:28.261Z,17.35
2018-06-19T00:44:28.246Z,17.35
2018-06-19T00:45:28.232Z,17.37
2018-06-19T00:46:28.219Z,17.49
2018-06-19T00:47:28.202Z,17.42
2018-06-19T00:48:28.192Z,17.50
2018-06-19T00:49:28.171Z,17.52
2018-06-19T00:50:28.158Z,17.49
2018-06-19T00:51:28.143Z,17.52
2018-06-19T00:52:28.278Z,17.56
2018-06-19T00:53:28.112Z,17.50
2018-06-19T00:54:28.097Z,17.60
2018-06-19T00:55:28.083Z,17.66
2018-06-19T00:56:28.126Z,17.68
2018-06-19T00:57:28.059Z,17.57
2018-06-19T00:58:28.037Z,17.69
2018-06-19T00:59:28.022Z,17.66
2018-06-19T01:00:28.010Z,17.69
2018-06-19T01:01:27.992Z,17.72
2018-06-19T01:02:27.977Z,17.79
2018-06-19T01:03:27.963Z,17.73
2018-06-19T01:04:27.949Z,17.63
2018-06-19T01:05:27.937Z,17.69
2018-06-19T01:06:27.918Z,17.73
2018-06-19T01:07:27.903Z,17.65
2018-06-19T01:08:27.903Z,17.60
2018-06-19T01:09:27.885Z,17.66
2018-06-19T01:10:27.858Z,17.71
2018-06-19T01:11:27.844Z,17.69
2018-06-19T01:12:27.831Z,17.78
2018-06-19T01:13:27.813Z,17.71
2018-06-19T01:14:27.805Z,17.65
2018-06-19T01:15:27.783Z,17.59
2018-06-19T01:16:27.770Z,17.60
2018-06-19T01:17:27.754Z,17.65
2018-06-19T01:18:27.740Z,17.63
2018-06-19T01:19:27.725Z,17.60
2018-06-19T01:20:27.711Z,17.65
2018-06-19T01:21:27.701Z,17.75
2018-06-19T01:22:27.681Z,17.71
2018-06-19T01:23:27.666Z,17.78
2018-06-19T01:24:27.651Z,17.73
2018-06-19T01:25:27.636Z,17.80
2018-06-19T01:26:27.624Z,17.80
2018-06-19T01:27:27.607Z,17.78
2018-06-19T01:28:27.593Z,17.75
2018-06-19T01:29:27.577Z,17.76
2018-06-19T01:30:27.570Z,17.76
2018-06-19T01:31:27.548Z,17.72
2018-06-19T01:32:27.534Z,17.75
2018-06-19T01:33:27.519Z,17.66
2018-06-19T01:34:27.508Z,17.71
2018-06-19T01:35:27.491Z,17.76
2018-06-19T01:36:27.477Z,17.75
2018-06-19T01:37:27.462Z,17.72
2018-06-19T01:38:27.446Z,17.71
2018-06-19T01:39:27.432Z,17.72
2018-06-19T01:40:27.417Z,17.75
2018-06-19T01:41:27.403Z,17.82
2018-06-19T01:42:27.389Z,17.69
2018-06-19T01:43:27.375Z,17.63
2018-06-19T01:44:27.360Z,17.66
2018-06-19T01:45:27.345Z,17.65
2018-06-19T01:46:27.327Z,17.65
2018-06-19T01:47:27.314Z,17.71
2018-06-19T01:48:27.351Z,17.63
2018-06-19T01:49:27.285Z,17.75
2018-06-19T01:50:27.267Z,17.72
2018-06-19T01:51:27.255Z,17.72
2018-06-19T01:52:27.256Z,17.76
2018-06-19T01:53:27.225Z,17.73
2018-06-19T01:54:27.210Z,17.82
2018-06-19T01:55:27.197Z,17.78
2018-06-19T01:56:27.181Z,17.73
2018-06-19T01:57:27.166Z,17.57
2018-06-19T01:58:27.152Z,17.69
2018-06-19T01:59:27.140Z,17.59
2018-06-19T02:00:27.123Z,17.60
2018-06-19T02:01:27.108Z,17.68
2018-06-19T02:02:27.093Z,17.68
2018-06-19T02:03:27.077Z,17.63
2018-06-19T02:04:27.062Z,17.69
2018-06-19T02:05:27.047Z,17.66
2018-06-19T02:06:27.033Z,17.68
2018-06-19T02:07:27.029Z,17.60
2018-06-19T02:08:27.007Z,17.69
2018-06-19T02:09:26.988Z,17.69
2018-06-19T02:10:26.973Z,17.68
2018-06-19T02:11:26.959Z,17.63
2018-06-19T02:12:26.945Z,17.60
2018-06-19T02:13:26.929Z,17.75
2018-06-19T02:14:26.914Z,17.63
2018-06-19T02:15:26.899Z,17.66
2018-06-19T02:16:26.886Z,17.63
2018-06-19T02:17:26.870Z,17.60
2018-06-19T02:18:26.856Z,17.59
2018-06-19T02:19:26.841Z,17.75
2018-06-19T02:20:26.830Z,17.78
2018-06-19T02:21:26.811Z,17.69
2018-06-19T02:22:26.797Z,17.59
2018-06-19T02:23:26.787Z,17.66
2018-06-19T02:24:26.767Z,17.65
2018-06-19T02:25:26.753Z,17.68
2018-06-19T02:26:26.736Z,17.63
2018-06-19T02:27:26.723Z,17.57
2018-06-19T02:28:26.719Z,17.53
2018-06-19T02:29:26.693Z,17.60
2018-06-19T02:30:26.677Z,17.54
2018-06-19T02:31:26.673Z,17.53
2018-06-19T02:32:26.660Z,17.59
2018-06-19T02:33:26.633Z,17.60
2018-06-19T02:34:26.618Z,17.60
2018-06-19T02:35:26.606Z,17.56
2018-06-19T02:36:26.597Z,17.69
2018-06-19T02:37:26.577Z,17.63
2018-06-19T02:38:26.568Z,17.63
2018-06-19T02:39:26.546Z,17.63
2018-06-19T02:40:26.531Z,17.63
2018-06-19T02:41:26.516Z,17.63
2018-06-19T02:42:26.510Z,17.57
2018-06-19T02:43:26.486Z,17.53
2018-06-19T02:44:26.472Z,17.56
2018-06-19T02:45:26.458Z,17.56
2018-06-19T02:46:26.442Z,17.49
2018-06-19T02:47:26.435Z,17.56
2018-06-19T02:48:26.413Z,17.57
2018-06-19T02:49:26.399Z,17.59
2018-06-19T02:50:26.432Z,17.68
2018-06-19T02:51:26.368Z,17.65
2018-06-19T02:52:26.354Z,17.68
2018-06-19T02:53:26.340Z,17.60
2018-06-19T02:54:26.325Z,17.60
2018-06-19T02:55:26.311Z,17.66
2018-06-19T02:56:26.296Z,17.60
2018-06-19T02:57:26.287Z,17.71
2018-06-19T02:58:26.265Z,17.57
2018-06-19T02:59:26.250Z,17.69
2018-06-19T03:00:26.336Z,17.65
2018-06-19T03:01:26.220Z,17.72
2018-06-19T03:02:26.213Z,17.66
2018-06-19T03:03:26.193Z,17.78
2018-06-19T03:04:26.185Z,17.79
2018-06-19T03:05:26.162Z,17.75
2018-06-19T03:06:26.147Z,17.65
2018-06-19T03:07:26.132Z,17.80
2018-06-19T03:08:26.120Z,17.59
2018-06-19T03:09:26.101Z,17.60
2018-06-19T03:10:26.088Z,17.65
2018-06-19T03:11:26.073Z,17.60
2018-06-19T03:12:26.061Z,17.65
2018-06-19T03:13:26.046Z,17.57
2018-06-19T03:14:26.032Z,17.52
2018-06-19T03:15:26.018Z,17.60
2018-06-19T03:16:26.002Z,17.57
2018-06-19T03:17:25.983Z,17.66
2018-06-19T03:18:25.969Z,17.59
2018-06-19T03:19:25.954Z,17.66
2018-06-19T03:20:25.939Z,17.69
2018-06-19T03:21:25.924Z,17.65
2018-06-19T03:22:25.908Z,17.57
2018-06-19T03:23:25.895Z,17.63
2018-06-19T03:24:25.880Z,17.65
2018-06-19T03:25:25.864Z,17.63
2018-06-19T03:26:25.851Z,17.68
2018-06-19T03:27:25.835Z,17.69
2018-06-19T03:28:25.820Z,17.63
2018-06-19T03:29:25.804Z,17.59
2018-06-19T03:30:25.908Z,17.72
2018-06-19T03:31:25.777Z,17.73
2018-06-19T03:32:25.761Z,17.72
2018-06-19T03:33:25.748Z,17.66
2018-06-19T03:34:25.730Z,17.76
2018-06-19T03:35:25.717Z,17.75
2018-06-19T03:36:25.701Z,17.75
2018-06-19T03:37:25.685Z,17.73
2018-06-19T03:38:25.675Z,17.79
2018-06-19T03:39:25.659Z,17.73
2018-06-19T03:40:25.643Z,17.59
2018-06-19T03:41:25.628Z,17.65
2018-06-19T03:42:25.613Z,17.65
2018-06-19T03:43:25.597Z,17.69
2018-06-19T03:44:25.584Z,17.65
2018-06-19T03:45:25.573Z,17.66
2018-06-19T03:46:25.554Z,17.54
2018-06-19T03:47:25.537Z,17.65
2018-06-19T03:48:25.532Z,17.60
2018-06-19T03:49:25.509Z,17.57
2018-06-19T03:50:25.495Z,17.59
2018-06-19T03:51:25.480Z,17.66
2018-06-19T03:52:25.463Z,17.57
2018-06-19T03:53:25.449Z,17.78
2018-06-19T03:54:25.434Z,17.73
2018-06-19T03:55:25.435Z,17.75
2018-06-19T03:56:25.406Z,17.80
2018-06-19T03:57:25.396Z,17.73
2018-06-19T03:58:25.375Z,17.60
2018-06-19T03:59:25.361Z,17.63
2018-06-19T04:00:25.364Z,17.59
2018-06-19T04:01:25.418Z,17.63
2018-06-19T04:02:25.323Z,17.50
2018-06-19T04:03:25.301Z,17.52
2018-06-19T04:04:25.287Z,17.59
2018-06-19T04:05:25.297Z,17.68
2018-06-19T04:06:25.257Z,17.57
2018-06-19T04:07:25.245Z,17.60
2018-06-19T04:08:25.234Z,17.65
2018-06-19T04:09:25.212Z,17.57
2018-06-19T04:10:25.209Z,17.68
2018-06-19T04:11:25.189Z,17.69
2018-06-19T04:12:25.170Z,17.65
2018-06-19T04:13:25.153Z,17.57
2018-06-19T04:14:25.144Z,17.66
2018-06-19T04:15:25.123Z,17.75
2018-06-19T04:16:25.110Z,17.82
2018-06-19T04:17:25.094Z,17.82
2018-06-19T04:18:25.080Z,17.76
2018-06-19T04:19:25.066Z,17.79
2018-06-19T04:20:25.051Z,17.79
2018-06-19T04:21:25.051Z,17.84
2018-06-19T04:22:25.020Z,17.79
2018-06-19T04:23:25.005Z,17.65
2018-06-19T04:24:24.991Z,17.60
2018-06-19T04:25:24.976Z,17.75
2018-06-19T04:26:24.962Z,17.76
2018-06-19T04:27:24.946Z,17.72
2018-06-19T04:28:24.940Z,17.82
2018-06-19T04:29:24.918Z,17.87
2018-06-19T04:30:24.901Z,17.98
2018-06-19T04:31:24.899Z,17.79
2018-06-19T04:32:24.870Z,17.82
2018-06-19T04:33:24.937Z,17.79
2018-06-19T04:34:24.844Z,17.84
2018-06-19T04:35:24.829Z,17.98
2018-06-19T04:36:24.813Z,17.97
2018-06-19T04:37:24.797Z,17.90
2018-06-19T04:38:24.784Z,17.93
2018-06-19T04:39:24.768Z,17.91
2018-06-19T04:40:24.755Z,17.90
2018-06-19T04:41:24.738Z,17.91
2018-06-19T04:42:24.725Z,17.86
2018-06-19T04:43:24.710Z,17.82
2018-06-19T04:44:24.695Z,17.80
2018-06-19T04:45:24.679Z,17.86
2018-06-19T04:46:24.668Z,17.76
2018-06-19T04:47:24.654Z,17.75
2018-06-19T04:48:24.641Z,17.79
2018-06-19T04:49:24.633Z,17.76
2018-06-19T04:50:24.608Z,17.75
2018-06-19T04:51:24.593Z,17.84
2018-06-19T04:52:24.579Z,17.88
2018-06-19T04:53:24.563Z,17.90
2018-06-19T04:54:24.554Z,17.82
2018-06-19T04:55:24.538Z,17.88
2018-06-19T04:56:24.521Z,17.90
2018-06-19T04:57:24.509Z,17.88
2018-06-19T04:58:24.491Z,17.90
2018-06-19T04:59:24.488Z,18.02
2018-06-19T05:00:24.460Z,17.98
2018-06-19T05:01:24.446Z,17.93
2018-06-19T05:02:24.443Z,17.98
2018-06-19T05:03:24.420Z,17.88
2018-06-19T05:04:24.405Z,18.00
2018-06-19T05:05:24.399Z,18.02
2018-06-19T05:06:24.381Z,17.97
2018-06-19T05:07:24.357Z,17.93
2018-06-19T05:08:24.347Z,17.98
2018-06-19T05:09:24.327Z,18.03
2018-06-19T05:10:24.331Z,17.80
2018-06-19T05:11:24.304Z,17.80
2018-06-19T05:12:24.290Z,17.80
2018-06-19T05:13:24.273Z,17.80
2018-06-19T05:14:24.262Z,17.93
2018-06-19T05:15:24.243Z,17.98
2018-06-19T05:16:24.228Z,18.02
2018-06-19T05:17:24.213Z,18.03
2018-06-19T05:18:24.201Z,17.97
2018-06-19T05:19:24.184Z,17.98
2018-06-19T05:20:24.171Z,18.02
2018-06-19T05:21:24.155Z,17.98
2018-06-19T05:22:24.151Z,18.00
2018-06-19T05:23:24.129Z,17.97
2018-06-19T05:24:24.111Z,18.00
2018-06-19T05:25:24.105Z,17.94
2018-06-19T05:26:24.083Z,17.84
2018-06-19T05:27:24.068Z,17.80
2018-06-19T05:28:24.054Z,17.94
2018-06-19T05:29:24.039Z,17.80
2018-06-19T05:30:24.100Z,17.90
2018-06-19T05:31:24.012Z,17.98
2018-06-19T05:32:23.999Z,18.00
2018-06-19T05:33:23.982Z,18.02
2018-06-19T05:34:23.967Z,17.98
2018-06-19T05:35:23.962Z,18.08
2018-06-19T05:36:23.940Z,18.00
2018-06-19T05:37:23.935Z,17.79
2018-06-19T05:38:23.912Z,17.84
2018-06-19T05:39:23.906Z,17.93
2018-06-19T05:40:23.885Z,18.02
2018-06-19T05:41:23.869Z,17.94
2018-06-19T05:42:23.854Z,17.97
2018-06-19T05:43:23.840Z,18.03
2018-06-19T05:44:23.826Z,17.97
2018-06-19T05:45:23.822Z,17.93
2018-06-19T05:46:23.932Z,18.05
2018-06-19T05:47:23.781Z,18.06
2018-06-19T05:48:23.768Z,18.02
2018-06-19T05:49:23.757Z,18.12
2018-06-19T05:50:23.747Z,18.09
2018-06-19T05:51:23.728Z,18.09
2018-06-19T05:52:23.713Z,18.19
2018-06-19T05:53:23.696Z,18.16
2018-06-19T05:54:23.682Z,18.15
2018-06-19T05:55:23.669Z,18.15
2018-06-19T05:56:23.666Z,18.13
2018-06-19T05:57:23.640Z,18.27
2018-06-19T05:58:23.624Z,18.23
2018-06-19T05:59:23.618Z,18.24
2018-06-19T06:00:23.595Z,18.18
2018-06-19T06:01:23.585Z,18.15
2018-06-19T06:02:23.576Z,18.11
2018-06-19T06:03:23.555Z,18.03
2018-06-19T06:04:23.540Z,18.05
2018-06-19T06:05:23.524Z,18.05
2018-06-19T06:06:23.514Z,18.08
2018-06-19T06:07:23.499Z,18.18
2018-06-19T06:08:23.490Z,18.15
2018-06-19T06:09:23.484Z,18.11
2018-06-19T06:10:23.459Z,18.19
2018-06-19T06:11:23.444Z,18.06
2018-06-19T06:12:23.426Z,18.05
2018-06-19T06:13:23.411Z,18.09
2018-06-19T06:14:23.398Z,18.00
2018-06-19T06:15:23.383Z,18.06
2018-06-19T06:16:23.453Z,18.03
2018-06-19T06:17:23.359Z,18.03
2018-06-19T06:18:23.341Z,18.05
2018-06-19T06:19:23.327Z,18.09
2018-06-19T06:20:23.315Z,18.06
2018-06-19T06:21:23.298Z,18.21
2018-06-19T06:22:23.285Z,18.21
2018-06-19T06:23:23.270Z,18.13
2018-06-19T06:24:23.258Z,18.06
2018-06-19T06:25:23.245Z,18.06
2018-06-19T06:26:23.229Z,18.11
2018-06-19T06:27:23.222Z,18.21
2018-06-19T06:28:23.202Z,18.24
2018-06-19T06:29:23.193Z,18.18
2018-06-19T06:30:23.171Z,18.21
2018-06-19T06:31:23.225Z,18.11
2018-06-19T06:32:23.145Z,18.24
2018-06-19T06:33:23.129Z,18.08
2018-06-19T06:34:23.114Z,18.13
2018-06-19T06:35:23.107Z,18.12
2018-06-19T06:36:23.088Z,18.23
2018-06-19T06:37:23.074Z,18.16
2018-06-19T06:38:23.059Z,18.23
2018-06-19T06:39:23.054Z,18.28
2018-06-19T06:40:23.044Z,18.34
2018-06-19T06:41:23.025Z,18.46
2018-06-19T06:42:23.003Z,18.45
2018-06-19T06:43:22.991Z,18.60
2018-06-19T06:44:22.975Z,18.63
2018-06-19T06:45:22.961Z,18.63
2018-06-19T06:46:22.948Z,18.74
2018-06-19T06:47:22.972Z,18.82
2018-06-19T06:48:22.922Z,18.76
2018-06-19T06:49:22.905Z,18.78
2018-06-19T06:50:23.007Z,18.73
2018-06-19T06:51:22.879Z,18.71
2018-06-19T06:52:22.866Z,18.67
2018-06-19T06:53:22.857Z,18.81
2018-06-19T06:54:22.843Z,18.83
2018-06-19T06:55:22.828Z,18.91
2018-06-19T06:56:22.836Z,18.85
2018-06-19T06:57:22.802Z,18.88
2018-06-19T06:58:22.788Z,18.82
2018-06-19T06:59:22.775Z,18.97
2018-06-19T07:00:22.759Z,19.00
2018-06-19T07:01:22.745Z,18.96
2018-06-19T07:02:22.730Z,19.07
2018-06-19T07:03:22.720Z,19.11
2018-06-19T07:04:22.717Z,19.12
2018-06-19T07:05:22.702Z,19.12
2018-06-19T07:06:22.681Z,19.15
2018-06-19T07:07:22.667Z,19.15
2018-06-19T07:08:22.653Z,19.19
2018-06-19T07:09:22.645Z,19.15
2018-06-19T07:10:22.632Z,19.20
2018-06-19T07:11:22.614Z,19.20
2018-06-19T07:12:22.599Z,19.39
2018-06-19T07:13:22.636Z,19.55
2018-06-19T07:14:22.576Z,19.57
2018-06-19T07:15:22.572Z,19.77
2018-06-19T07:16:22.632Z,19.82
2018-06-19T07:17:22.543Z,19.81
2018-06-19T07:18:22.535Z,19.89
2018-06-19T07:19:22.553Z,19.92
2018-06-19T07:20:22.500Z,19.93
2018-06-19T07:21:22.493Z,20.00
2018-06-19T07:22:22.501Z,19.94
2018-06-19T07:23:22.462Z,19.97
2018-06-19T07:24:22.448Z,19.84
2018-06-19T07:25:22.437Z,19.81
2018-06-19T07:26:22.431Z,19.89
2018-06-19T07:27:22.411Z,19.82
2018-06-19T07:28:22.407Z,19.90
2018-06-19T07:29:22.389Z,19.85
2018-06-19T07:30:22.375Z,19.87
2018-06-19T07:31:22.365Z,19.79
2018-06-19T07:32:22.354Z,19.79
2018-06-19T07:33:22.342Z,19.74
2018-06-19T07:34:22.327Z,19.72
2018-06-19T07:35:22.314Z,19.60
2018-06-19T07:36:22.316Z,19.79
2018-06-19T07:37:22.289Z,19.85
2018-06-19T07:38:22.344Z,19.81
2018-06-19T07:39:22.273Z,19.70
2018-06-19T07:40:22.269Z,19.56
2018-06-19T07:41:22.248Z,19.62
2018-06-19T07:42:22.238Z,19.71
2018-06-19T07:43:22.229Z,19.52
2018-06-19T07:44:22.235Z,19.64
2018-06-19T07:45:22.194Z,19.72
2018-06-19T07:46:22.238Z,19.71
2018-06-19T07:47:22.168Z,19.85
2018-06-19T07:48:22.157Z,19.93
2018-06-19T07:49:22.144Z,19.84
2018-06-19T07:50:22.132Z,19.84
2018-06-19T07:51:22.126Z,19.75
2018-06-19T07:52:22.110Z,19.74
2018-06-19T07:53:22.095Z,19.84
2018-06-19T07:54:22.088Z,20.00
2018-06-19T07:55:22.072Z,19.89
2018-06-19T07:56:22.073Z,19.92
2018-06-19T07:57:22.078Z,19.89
2018-06-19T07:58:22.038Z,19.93
2018-06-19T07:59:22.025Z,19.94
2018-06-19T08:00:22.018Z,19.66
2018-06-19T08:01:22.004Z,19.59
2018-06-19T08:02:21.990Z,19.42
2018-06-19T08:03:21.983Z,19.45
2018-06-19T08:04:21.963Z,19.30
2018-06-19T08:05:21.950Z,19.35
2018-06-19T08:06:21.940Z,19.42
2018-06-19T08:07:21.928Z,19.55
2018-06-19T08:08:21.921Z,19.41
2018-06-19T08:09:21.905Z,19.39
2018-06-19T08:10:21.893Z,19.39
2018-06-19T08:11:21.879Z,19.23
2018-06-19T08:12:21.876Z,19.39
2018-06-19T08:13:21.866Z,19.44
2018-06-19T08:14:21.841Z,19.53
2018-06-19T08:15:21.830Z,19.27
2018-06-19T08:16:21.823Z,19.30
2018-06-19T08:17:21.813Z,19.30
2018-06-19T08:18:21.792Z,19.20
2018-06-19T08:19:21.780Z,19.24
2018-06-19T08:20:21.768Z,19.16
2018-06-19T08:21:21.764Z,18.91
2018-06-19T08:22:21.754Z,18.85
2018-06-19T08:23:21.732Z,18.82
2018-06-19T08:24:21.738Z,18.76
2018-06-19T08:25:21.705Z,18.86
2018-06-19T08:26:21.703Z,18.89
2018-06-19T08:27:21.680Z,19.05
2018-06-19T08:28:21.670Z,19.11
2018-06-19T08:29:21.655Z,19.19
2018-06-19T08:30:21.642Z,19.17
2018-06-19T08:31:21.629Z,19.17
2018-06-19T08:32:21.644Z,19.24
2018-06-19T08:33:21.603Z,19.37
2018-06-19T08:34:21.589Z,19.53
2018-06-19T08:35:21.578Z,19.55
2018-06-19T08:36:21.576Z,19.44
2018-06-19T08:37:21.561Z,19.42
2018-06-19T08:38:21.548Z,19.53
2018-06-19T08:39:21.677Z,19.64
2018-06-19T08:40:21.537Z,19.72
2018-06-19T08:41:21.502Z,19.60
2018-06-19T08:42:21.490Z,19.72
2018-06-19T08:43:21.478Z,19.72
2018-06-19T08:44:21.465Z,19.75
2018-06-19T08:45:21.450Z,19.74
2018-06-19T08:46:21.441Z,19.71
2018-06-19T08:47:21.442Z,19.64
2018-06-19T08:48:21.423Z,19.48
2018-06-19T08:49:21.401Z,19.49
2018-06-19T08:50:21.389Z,19.41
2018-06-19T08:51:21.376Z,19.41
2018-06-19T08:52:21.363Z,19.44
2018-06-19T08:53:21.354Z,19.55
2018-06-19T08:54:21.402Z,19.67
2018-06-19T08:55:21.335Z,19.84
2018-06-19T08:56:21.316Z,19.79
2018-06-19T08:57:21.302Z,19.97
2018-06-19T08:58:21.393Z,20.18
2018-06-19T08:59:21.284Z,20.08
2018-06-19T09:00:21.323Z,20.27
2018-06-19T09:01:21.262Z,20.21
2018-06-19T09:02:21.239Z,20.11
2018-06-19T09:03:21.228Z,20.21
2018-06-19T09:04:21.216Z,20.29
2018-06-19T09:05:21.203Z,20.42
2018-06-19T09:06:21.201Z,20.68
2018-06-19T09:07:21.182Z,20.96
2018-06-19T09:08:21.169Z,21.01
2018-06-19T09:09:21.163Z,21.01
2018-06-19T09:10:21.151Z,21.03
2018-06-19T09:11:21.141Z,21.07
2018-06-19T09:12:21.126Z,21.10
2018-06-19T09:13:21.120Z,20.85
2018-06-19T09:14:21.100Z,20.93
2018-06-19T09:15:21.089Z,20.70
2018-06-19T09:16:21.077Z,20.68
2018-06-19T09:17:21.076Z,20.77
2018-06-19T09:18:21.058Z,20.83
2018-06-19T09:19:21.047Z,20.85
2018-06-19T09:20:21.055Z,20.66
2018-06-19T09:21:21.033Z,20.49
2018-06-19T09:22:21.011Z,20.58
2018-06-19T09:23:21.006Z,20.46
2018-06-19T09:24:20.991Z,20.36
2018-06-19T09:25:20.990Z,20.37
2018-06-19T09:26:20.968Z,20.37
2018-06-19T09:27:20.965Z,20.42
2018-06-19T09:28:20.947Z,20.55
2018-06-19T09:29:20.935Z,20.53
2018-06-19T09:30:20.927Z,20.53
2018-06-19T09:31:20.933Z,20.49
2018-06-19T09:32:20.979Z,20.58
2018-06-19T09:33:20.905Z,20.53
2018-06-19T09:34:20.879Z,20.42
2018-06-19T09:35:20.876Z,20.36
2018-06-19T09:36:20.856Z,20.49
2018-06-19T09:37:20.870Z,20.40
2018-06-19T09:38:20.833Z,20.53
2018-06-19T09:39:20.821Z,20.60
2018-06-19T09:40:20.830Z,20.52
2018-06-19T09:41:20.803Z,20.59
2018-06-19T09:42:20.788Z,20.55
2018-06-19T09:43:20.777Z,20.68
2018-06-19T09:44:20.765Z,20.56
2018-06-19T09:45:20.756Z,20.56
2018-06-19T09:46:20.743Z,20.55
2018-06-19T09:47:20.735Z,20.66
2018-06-19T09:48:20.720Z,20.59
2018-06-19T09:49:20.716Z,20.58
2018-06-19T09:50:20.710Z,20.56
2018-06-19T09:51:20.691Z,20.75
2018-06-19T09:52:20.675Z,20.80
2018-06-19T09:53:20.662Z,20.66
2018-06-19T09:54:20.659Z,20.71
2018-06-19T09:55:20.645Z,20.64
2018-06-19T09:56:20.631Z,20.71
2018-06-19T09:57:20.617Z,20.74
2018-06-19T09:58:20.663Z,20.89
2018-06-19T09:59:20.661Z,20.88
2018-06-19T10:00:20.584Z,20.78
2018-06-19T10:01:20.573Z,20.75
2018-06-19T10:02:20.562Z,20.77
2018-06-19T10:03:20.551Z,20.75
2018-06-19T10:04:20.539Z,20.75
2018-06-19T10:05:20.530Z,20.55
2018-06-19T10:06:20.588Z,20.50
2018-06-19T10:07:20.509Z,20.49
2018-06-19T10:08:20.502Z,20.34
2018-06-19T10:09:20.484Z,20.26
2018-06-19T10:10:20.471Z,20.30
2018-06-19T10:11:20.460Z,20.19
2018-06-19T10:12:20.449Z,20.29
2018-06-19T10:13:20.437Z,20.27
2018-06-19T10:14:20.426Z,20.39
2018-06-19T10:15:20.417Z,20.40
2018-06-19T10:16:20.404Z,20.40
2018-06-19T10:17:20.412Z,20.44
2018-06-19T10:18:20.380Z,20.52
2018-06-19T10:19:20.423Z,20.52
2018-06-19T10:20:20.370Z,20.56
2018-06-19T10:21:20.348Z,20.77
2018-06-19T10:22:20.334Z,20.85
2018-06-19T10:23:20.321Z,20.70
2018-06-19T10:24:20.312Z,20.63
2018-06-19T10:25:20.299Z,20.77
2018-06-19T10:26:20.294Z,20.75
2018-06-19T10:27:20.277Z,20.60
2018-06-19T10:28:20.273Z,20.56
2018-06-19T10:29:20.256Z,20.59
2018-06-19T10:30:20.242Z,20.58
2018-06-19T10:31:20.229Z,20.68
2018-06-19T10:32:20.224Z,20.89
2018-06-19T10:33:20.208Z,20.85
2018-06-19T10:34:20.203Z,20.83
2018-06-19T10:35:20.184Z,20.64
2018-06-19T10:36:20.175Z,20.67
2018-06-19T10:37:20.165Z,20.59
2018-06-19T10:38:20.166Z,20.53
2018-06-19T10:39:20.138Z,20.42
2018-06-19T10:40:20.224Z,20.37
2018-06-19T10:41:20.115Z,20.59
2018-06-19T10:42:20.101Z,20.55
2018-06-19T10:43:20.092Z,20.63
2018-06-19T10:44:20.079Z,20.64
2018-06-19T10:45:20.069Z,20.85
2018-06-19T10:46:20.058Z,21.14
2018-06-19T10:47:20.047Z,21.28
2018-06-19T10:48:20.037Z,21.43
2018-06-19T10:49:20.025Z,21.48
2018-06-19T10:50:20.012Z,21.37
2018-06-19T10:51:20.001Z,21.33
2018-06-19T10:52:19.998Z,21.45
2018-06-19T10:53:19.982Z,21.50
2018-06-19T10:54:19.967Z,21.23
2018-06-19T10:55:19.956Z,20.88
2018-06-19T10:56:19.947Z,20.89
2018-06-19T10:57:19.934Z,20.98
2018-06-19T10:58:19.936Z,21.11
2018-06-19T10:59:19.911Z,21.23
2018-06-19T11:00:19.908Z,21.20
2018-06-19T11:01:19.889Z,21.11
2018-06-19T11:02:19.879Z,21.05
2018-06-19T11:03:19.881Z,21.04
2018-06-19T11:04:19.865Z,21.28
2018-06-19T11:05:19.853Z,21.50
2018-06-19T11:06:19.834Z,21.54
2018-06-19T11:07:19.927Z,21.68
2018-06-19T11:08:19.925Z,21.74
2018-06-19T11:09:19.803Z,21.60
2018-06-19T11:10:19.802Z,21.66
2018-06-19T11:11:19.788Z,21.41
2018-06-19T11:12:19.781Z,21.32
2018-06-19T11:13:19.759Z,21.40
2018-06-19T11:14:19.753Z,21.54
2018-06-19T11:15:20.063Z,21.56
2018-06-19T11:16:19.734Z,21.56
2018-06-19T11:17:19.732Z,21.63
2018-06-19T11:18:19.705Z,21.88
2018-06-19T11:19:19.698Z,21.96
2018-06-19T11:20:19.695Z,22.15
2018-06-19T11:21:19.697Z,22.19
2018-06-19T11:22:19.664Z,22.25
2018-06-19T11:23:19.652Z,22.21
2018-06-19T11:24:19.644Z,22.40
2018-06-19T11:25:19.638Z,22.40
2018-06-19T11:26:19.622Z,22.68
2018-06-19T11:27:19.610Z,23.07
2018-06-19T11:28:19.603Z,23.04
2018-06-19T11:29:19.593Z,23.14
2018-06-19T11:30:19.591Z,23.11
2018-06-19T11:31:19.574Z,23.21
2018-06-19T11:32:19.570Z,23.40
2018-06-19T11:33:19.551Z,23.49
2018-06-19T11:34:19.551Z,23.40
2018-06-19T11:35:19.536Z,23.62
2018-06-19T11:36:19.526Z,23.55
2018-06-19T11:37:19.522Z,23.37
2018-06-19T11:38:19.515Z,23.25
2018-06-19T11:39:19.506Z,23.44
2018-06-19T11:40:19.489Z,23.44
2018-06-19T11:41:19.499Z,23.54
2018-06-19T11:42:19.470Z,23.45
2018-06-19T11:43:19.512Z,23.69
2018-06-19T11:44:19.462Z,23.79
2018-06-19T11:45:19.443Z,23.51
2018-06-19T11:46:19.435Z,23.39
2018-06-19T11:47:19.427Z,23.28
2018-06-19T11:48:19.417Z,23.14
2018-06-19T11:49:19.422Z,23.10
2018-06-19T11:50:19.403Z,22.92
2018-06-19T11:51:19.402Z,22.80
2018-06-19T11:52:19.382Z,22.77
2018-06-19T11:53:19.377Z,22.80
2018-06-19T11:54:19.371Z,23.17
2018-06-19T11:55:19.364Z,23.23
2018-06-19T11:56:19.353Z,23.37
2018-06-19T11:57:19.348Z,23.59
2018-06-19T11:58:19.329Z,23.40
2018-06-19T11:59:19.327Z,23.17
2018-06-19T12:00:19.319Z,23.13
2018-06-19T12:01:19.303Z,23.08
2018-06-19T12:02:19.293Z,23.11
2018-06-19T12:03:19.285Z,22.92
2018-06-19T12:04:19.275Z,22.84
2018-06-19T12:05:19.267Z,23.04
2018-06-19T12:06:19.257Z,23.11
2018-06-19T12:07:19.256Z,23.10
2018-06-19T12:08:19.246Z,23.13
2018-06-19T12:09:19.229Z,23.08
2018-06-19T12:10:19.377Z,23.02
2018-06-19T12:11:19.211Z,23.23
2018-06-19T12:12:19.204Z,23.52
2018-06-19T12:13:19.196Z,23.42
2018-06-19T12:14:19.223Z,23.40
2018-06-19T12:15:19.177Z,23.66
2018-06-19T12:16:19.167Z,23.37
2018-06-19T12:17:19.165Z,23.36
2018-06-19T12:18:19.149Z,23.20
2018-06-19T12:19:19.143Z,23.20
2018-06-19T12:20:19.134Z,23.17
2018-06-19T12:21:19.122Z,22.99
2018-06-19T12:22:19.120Z,22.84
2018-06-19T12:23:19.119Z,22.86
2018-06-19T12:24:19.101Z,23.04
2018-06-19T12:25:19.084Z,23.14
2018-06-19T12:26:19.084Z,23.40
2018-06-19T12:27:19.078Z,23.42
2018-06-19T12:28:19.067Z,23.59
2018-06-19T12:29:19.048Z,23.67
2018-06-19T12:30:19.036Z,23.71
2018-06-19T12:31:19.032Z,23.58
2018-06-19T12:32:19.026Z,23.63
2018-06-19T12:33:19.016Z,23.59
2018-06-19T12:34:19.006Z,23.79
2018-06-19T12:35:18.993Z,23.81
2018-06-19T12:36:18.985Z,23.74
2018-06-19T12:37:19.089Z,23.69
2018-06-19T12:38:18.965Z,23.88
2018-06-19T12:39:18.957Z,23.73
2018-06-19T12:40:18.951Z,23.74
2018-06-19T12:41:18.939Z,23.63
2018-06-19T12:42:18.929Z,23.51
2018-06-19T12:43:18.922Z,23.51
2018-06-19T12:44:18.913Z,23.55
2018-06-19T12:45:18.903Z,23.69
2018-06-19T12:46:18.896Z,23.67
2018-06-19T12:47:18.897Z,23.77
2018-06-19T12:48:18.897Z,23.88
2018-06-19T12:49:18.873Z,23.94
2018-06-19T12:50:18.858Z,24.19
2018-06-19T12:51:18.859Z,24.07
2018-06-19T12:52:18.844Z,24.26